الصفحة الرئيسية
METAR-TAF:

METAR-TAF

مطار :

Toliara, مدغشقر

دائرة عرض: 23-23S, خط طول: 043-44E, ارتفاع: 8 متر

METAR: مفقودة

زمن: 12:28 (09:28 UTC)

توقعات

تاريخ ووقت الإصدار 4ساعات و 28 دقيقة قبل الساعة 05:00UTC
التوقعات صالحة من22 الساعة 06 UTC إلى 23 الساعة 06 UTC
ريح 6 عقدة من الشرق
الرؤية 10 كم أو أكثر
غيوم قليلة على ارتفاع 2300 قدم
أصبح
من 22 الساعة 08 UTC إلى 22 الساعة 11 UTC
ريح 12 عقدة من الغرب
أصبح
من 22 الساعة 17 UTC إلى 22 الساعة 20 UTC
ريح 8 عقدة من الشرق/الشمال الشرقي

TAF: FMST 220500Z 2206/2306 08006KT 9999 FEW023 BECMG 2208/2211 26012KT BECMG 2217/2220 06008KT

أرصاد الطقس والتوقعات من أكثر من 4000 مطار (تقارير الطقس للمطار METAR والتنبؤ بالطقس بالمطارTAF).

المحطات المتاحة هي النقط الصفراء والحمراء على الخريطة.

حرك المؤشر فوق النقطة لمعرفة اسم المحطة.

ثم انقر لمعرفة أرصاد وتوقعات الطقس.

لتغيير الخارطة: اضغط على الأزرار الخضراء مع رمز الصليب الأسود للتكبير. على الزر الأخضر مع شرطة للتصغير، أو على الأسهم الخضراء للخرائط المجاورة.


METAR-TAF: